sensor_id;sensor_type;location;lat;lon;timestamp;P1;durP1;ratioP1;P2;durP2;ratioP2
47403;SDS011;33157;51.508;4.288;2023-03-14T00:00:19;9.45;;;1.75;;
47403;SDS011;33157;51.508;4.288;2023-03-14T00:10:29;12.63;;;2.45;;
47403;SDS011;33157;51.508;4.288;2023-03-14T00:15:31;9.50;;;1.92;;
47403;SDS011;33157;51.508;4.288;2023-03-14T00:20:33;10.95;;;2.33;;
47403;SDS011;33157;51.508;4.288;2023-03-14T00:25:34;23.20;;;3.17;;
47403;SDS011;33157;51.508;4.288;2023-03-14T00:30:37;9.57;;;1.52;;
47403;SDS011;33157;51.508;4.288;2023-03-14T00:35:43;10.75;;;2.53;;
47403;SDS011;33157;51.508;4.288;2023-03-14T00:40:44;8.10;;;1.45;;
47403;SDS011;33157;51.508;4.288;2023-03-14T00:45:46;9.32;;;1.65;;
47403;SDS011;33157;51.508;4.288;2023-03-14T00:50:51;12.77;;;2.50;;
47403;SDS011;33157;51.508;4.288;2023-03-14T00:55:53;7.18;;;1.60;;
47403;SDS011;33157;51.508;4.288;2023-03-14T01:01:28;6.13;;;1.77;;
47403;SDS011;33157;51.508;4.288;2023-03-14T01:06:26;11.07;;;2.42;;
47403;SDS011;33157;51.508;4.288;2023-03-14T01:11:30;11.25;;;2.15;;
47403;SDS011;33157;51.508;4.288;2023-03-14T01:16:33;11.82;;;2.63;;
47403;SDS011;33157;51.508;4.288;2023-03-14T01:26:41;9.38;;;2.85;;
47403;SDS011;33157;51.508;4.288;2023-03-14T01:31:44;10.93;;;2.22;;
47403;SDS011;33157;51.508;4.288;2023-03-14T01:36:45;15.63;;;2.63;;
47403;SDS011;33157;51.508;4.288;2023-03-14T01:41:46;11.45;;;2.38;;
47403;SDS011;33157;51.508;4.288;2023-03-14T01:46:49;13.93;;;2.80;;
47403;SDS011;33157;51.508;4.288;2023-03-14T01:51:56;11.13;;;2.58;;
47403;SDS011;33157;51.508;4.288;2023-03-14T02:02:10;16.88;;;3.03;;
47403;SDS011;33157;51.508;4.288;2023-03-14T02:12:24;8.73;;;1.90;;
47403;SDS011;33157;51.508;4.288;2023-03-14T02:17:26;17.83;;;2.50;;
47403;SDS011;33157;51.508;4.288;2023-03-14T02:22:29;16.88;;;3.05;;
47403;SDS011;33157;51.508;4.288;2023-03-14T02:27:34;10.50;;;2.78;;
47403;SDS011;33157;51.508;4.288;2023-03-14T02:32:43;17.60;;;2.08;;
47403;SDS011;33157;51.508;4.288;2023-03-14T02:43:17;13.50;;;2.50;;
47403;SDS011;33157;51.508;4.288;2023-03-14T02:48:20;14.60;;;2.88;;
47403;SDS011;33157;51.508;4.288;2023-03-14T02:53:31;11.38;;;2.95;;
47403;SDS011;33157;51.508;4.288;2023-03-14T02:58:34;11.55;;;3.00;;
47403;SDS011;33157;51.508;4.288;2023-03-14T03:03:43;14.68;;;2.80;;
47403;SDS011;33157;51.508;4.288;2023-03-14T03:08:46;14.65;;;2.70;;
47403;SDS011;33157;51.508;4.288;2023-03-14T03:13:48;14.88;;;3.40;;
47403;SDS011;33157;51.508;4.288;2023-03-14T03:18:49;9.55;;;2.20;;
47403;SDS011;33157;51.508;4.288;2023-03-14T03:23:56;11.77;;;2.13;;
47403;SDS011;33157;51.508;4.288;2023-03-14T03:29:04;10.55;;;1.80;;
47403;SDS011;33157;51.508;4.288;2023-03-14T03:34:05;11.73;;;2.33;;
47403;SDS011;33157;51.508;4.288;2023-03-14T03:39:12;8.13;;;1.88;;
47403;SDS011;33157;51.508;4.288;2023-03-14T03:44:13;10.50;;;1.73;;
47403;SDS011;33157;51.508;4.288;2023-03-14T03:49:16;8.35;;;2.00;;
47403;SDS011;33157;51.508;4.288;2023-03-14T03:54:18;6.30;;;1.10;;
47403;SDS011;33157;51.508;4.288;2023-03-14T03:59:21;8.13;;;1.52;;
47403;SDS011;33157;51.508;4.288;2023-03-14T04:04:27;6.80;;;1.40;;
47403;SDS011;33157;51.508;4.288;2023-03-14T04:09:30;5.85;;;2.13;;
47403;SDS011;33157;51.508;4.288;2023-03-14T04:19:43;6.40;;;1.02;;
47403;SDS011;33157;51.508;4.288;2023-03-14T04:24:44;5.65;;;1.80;;
47403;SDS011;33157;51.508;4.288;2023-03-14T04:29:48;4.80;;;1.50;;
47403;SDS011;33157;51.508;4.288;2023-03-14T04:34:48;7.35;;;1.80;;
47403;SDS011;33157;51.508;4.288;2023-03-14T04:39:50;8.93;;;2.35;;
47403;SDS011;33157;51.508;4.288;2023-03-14T04:44:52;5.22;;;1.63;;
47403;SDS011;33157;51.508;4.288;2023-03-14T04:49:53;8.57;;;2.20;;
47403;SDS011;33157;51.508;4.288;2023-03-14T04:54:57;8.90;;;2.27;;
47403;SDS011;33157;51.508;4.288;2023-03-14T05:00:05;6.18;;;2.45;;
47403;SDS011;33157;51.508;4.288;2023-03-14T05:05:17;7.32;;;2.42;;
47403;SDS011;33157;51.508;4.288;2023-03-14T05:10:18;9.15;;;2.97;;
47403;SDS011;33157;51.508;4.288;2023-03-14T05:15:20;8.23;;;2.40;;
47403;SDS011;33157;51.508;4.288;2023-03-14T05:20:22;10.03;;;2.83;;
47403;SDS011;33157;51.508;4.288;2023-03-14T05:25:24;11.45;;;3.70;;
47403;SDS011;33157;51.508;4.288;2023-03-14T05:30:27;15.35;;;4.78;;
47403;SDS011;33157;51.508;4.288;2023-03-14T05:35:34;12.10;;;4.97;;
47403;SDS011;33157;51.508;4.288;2023-03-14T05:40:37;9.27;;;5.10;;
47403;SDS011;33157;51.508;4.288;2023-03-14T05:45:38;12.65;;;5.07;;
47403;SDS011;33157;51.508;4.288;2023-03-14T05:50:39;12.35;;;5.25;;
47403;SDS011;33157;51.508;4.288;2023-03-14T05:55:40;14.25;;;5.88;;
47403;SDS011;33157;51.508;4.288;2023-03-14T06:00:53;17.55;;;3.42;;
47403;SDS011;33157;51.508;4.288;2023-03-14T06:05:54;20.98;;;2.92;;
47403;SDS011;33157;51.508;4.288;2023-03-14T06:10:56;6.57;;;0.93;;
47403;SDS011;33157;51.508;4.288;2023-03-14T06:16:05;5.45;;;0.88;;
47403;SDS011;33157;51.508;4.288;2023-03-14T06:21:09;8.35;;;1.23;;
47403;SDS011;33157;51.508;4.288;2023-03-14T06:26:12;10.63;;;2.00;;
47403;SDS011;33157;51.508;4.288;2023-03-14T06:31:15;11.05;;;3.38;;
47403;SDS011;33157;51.508;4.288;2023-03-14T06:36:16;9.13;;;2.95;;
47403;SDS011;33157;51.508;4.288;2023-03-14T06:41:17;9.55;;;2.42;;
47403;SDS011;33157;51.508;4.288;2023-03-14T06:46:18;3.93;;;1.33;;
47403;SDS011;33157;51.508;4.288;2023-03-14T06:51:25;7.85;;;1.80;;
47403;SDS011;33157;51.508;4.288;2023-03-14T06:56:29;11.43;;;2.25;;
47403;SDS011;33157;51.508;4.288;2023-03-14T07:01:37;6.43;;;1.48;;
47403;SDS011;33157;51.508;4.288;2023-03-14T07:06:41;18.48;;;3.22;;
47403;SDS011;33157;51.508;4.288;2023-03-14T07:11:59;10.68;;;2.03;;
47403;SDS011;33157;51.508;4.288;2023-03-14T07:17:00;16.33;;;1.90;;
47403;SDS011;33157;51.508;4.288;2023-03-14T07:22:07;13.18;;;2.00;;
47403;SDS011;33157;51.508;4.288;2023-03-14T07:27:11;12.05;;;1.70;;
47403;SDS011;33157;51.508;4.288;2023-03-14T07:32:19;8.48;;;1.17;;
47403;SDS011;33157;51.508;4.288;2023-03-14T07:37:21;11.88;;;1.42;;
47403;SDS011;33157;51.508;4.288;2023-03-14T07:42:23;18.75;;;1.85;;
47403;SDS011;33157;51.508;4.288;2023-03-14T07:47:27;12.45;;;1.75;;
47403;SDS011;33157;51.508;4.288;2023-03-14T07:52:28;13.98;;;1.80;;
47403;SDS011;33157;51.508;4.288;2023-03-14T07:57:29;9.70;;;1.25;;
47403;SDS011;33157;51.508;4.288;2023-03-14T08:02:30;8.15;;;1.30;;
47403;SDS011;33157;51.508;4.288;2023-03-14T08:07:31;5.97;;;1.10;;
47403;SDS011;33157;51.508;4.288;2023-03-14T08:12:56;12.32;;;1.30;;
47403;SDS011;33157;51.508;4.288;2023-03-14T08:17:57;10.52;;;2.15;;
47403;SDS011;33157;51.508;4.288;2023-03-14T08:22:59;12.18;;;1.98;;
47403;SDS011;33157;51.508;4.288;2023-03-14T08:38:05;13.43;;;3.20;;
47403;SDS011;33157;51.508;4.288;2023-03-14T08:43:06;15.40;;;2.83;;
47403;SDS011;33157;51.508;4.288;2023-03-14T08:48:09;15.30;;;2.72;;
47403;SDS011;33157;51.508;4.288;2023-03-14T08:53:12;13.02;;;1.92;;
47403;SDS011;33157;51.508;4.288;2023-03-14T08:58:21;11.80;;;1.85;;
47403;SDS011;33157;51.508;4.288;2023-03-14T09:03:24;10.23;;;1.70;;
47403;SDS011;33157;51.508;4.288;2023-03-14T09:08:25;4.10;;;1.00;;
47403;SDS011;33157;51.508;4.288;2023-03-14T09:13:26;5.68;;;0.80;;
47403;SDS011;33157;51.508;4.288;2023-03-14T09:18:30;7.03;;;1.52;;
47403;SDS011;33157;51.508;4.288;2023-03-14T09:23:32;8.10;;;1.42;;
47403;SDS011;33157;51.508;4.288;2023-03-14T09:28:34;5.47;;;0.93;;
47403;SDS011;33157;51.508;4.288;2023-03-14T09:33:36;7.57;;;1.17;;
47403;SDS011;33157;51.508;4.288;2023-03-14T09:38:37;7.35;;;0.93;;
47403;SDS011;33157;51.508;4.288;2023-03-14T09:43:39;10.25;;;1.45;;
47403;SDS011;33157;51.508;4.288;2023-03-14T09:48:42;8.25;;;1.60;;
47403;SDS011;33157;51.508;4.288;2023-03-14T09:53:48;12.57;;;2.20;;
47403;SDS011;33157;51.508;4.288;2023-03-14T09:58:53;9.43;;;1.85;;
47403;SDS011;33157;51.508;4.288;2023-03-14T10:04:02;6.43;;;1.30;;
47403;SDS011;33157;51.508;4.288;2023-03-14T10:09:08;10.48;;;1.80;;
47403;SDS011;33157;51.508;4.288;2023-03-14T10:14:12;9.45;;;2.05;;
47403;SDS011;33157;51.508;4.288;2023-03-14T10:19:18;13.13;;;2.00;;
47403;SDS011;33157;51.508;4.288;2023-03-14T10:24:21;10.27;;;1.80;;
47403;SDS011;33157;51.508;4.288;2023-03-14T10:29:33;15.73;;;2.70;;
47403;SDS011;33157;51.508;4.288;2023-03-14T10:34:39;18.67;;;2.78;;
47403;SDS011;33157;51.508;4.288;2023-03-14T10:44:49;9.35;;;1.60;;
47403;SDS011;33157;51.508;4.288;2023-03-14T10:55:40;18.13;;;3.40;;
47403;SDS011;33157;51.508;4.288;2023-03-14T11:00:43;14.50;;;2.75;;
47403;SDS011;33157;51.508;4.288;2023-03-14T11:05:52;16.05;;;2.72;;
47403;SDS011;33157;51.508;4.288;2023-03-14T11:11:07;15.95;;;2.75;;
47403;SDS011;33157;51.508;4.288;2023-03-14T11:16:25;14.68;;;3.08;;
47403;SDS011;33157;51.508;4.288;2023-03-14T11:21:52;16.23;;;3.78;;
47403;SDS011;33157;51.508;4.288;2023-03-14T11:27:10;23.17;;;3.75;;
47403;SDS011;33157;51.508;4.288;2023-03-14T11:32:16;22.25;;;4.10;;
47403;SDS011;33157;51.508;4.288;2023-03-14T11:37:39;25.38;;;4.35;;
47403;SDS011;33157;51.508;4.288;2023-03-14T11:42:54;25.20;;;3.58;;
47403;SDS011;33157;51.508;4.288;2023-03-14T11:59:07;20.40;;;3.83;;
47403;SDS011;33157;51.508;4.288;2023-03-14T12:04:27;22.92;;;3.80;;
47403;SDS011;33157;51.508;4.288;2023-03-14T12:09:37;21.02;;;3.92;;
47403;SDS011;33157;51.508;4.288;2023-03-14T12:14:43;16.08;;;2.38;;
47403;SDS011;33157;51.508;4.288;2023-03-14T12:40:56;13.32;;;2.22;;
47403;SDS011;33157;51.508;4.288;2023-03-14T12:46:07;10.23;;;2.20;;
47403;SDS011;33157;51.508;4.288;2023-03-14T12:51:40;10.68;;;2.08;;
47403;SDS011;33157;51.508;4.288;2023-03-14T12:56:52;17.15;;;2.47;;
47403;SDS011;33157;51.508;4.288;2023-03-14T13:07:10;12.30;;;2.30;;
47403;SDS011;33157;51.508;4.288;2023-03-14T13:12:16;11.05;;;2.03;;
47403;SDS011;33157;51.508;4.288;2023-03-14T13:17:27;17.10;;;2.25;;
47403;SDS011;33157;51.508;4.288;2023-03-14T13:22:34;14.07;;;2.40;;
47403;SDS011;33157;51.508;4.288;2023-03-14T13:27:56;13.83;;;1.87;;
47403;SDS011;33157;51.508;4.288;2023-03-14T13:32:57;7.07;;;1.80;;
47403;SDS011;33157;51.508;4.288;2023-03-14T13:38:13;12.98;;;2.33;;
47403;SDS011;33157;51.508;4.288;2023-03-14T13:48:32;17.45;;;2.15;;
47403;SDS011;33157;51.508;4.288;2023-03-14T13:53:51;8.93;;;1.60;;
47403;SDS011;33157;51.508;4.288;2023-03-14T13:58:54;11.63;;;1.90;;
47403;SDS011;33157;51.508;4.288;2023-03-14T14:04:08;10.93;;;1.90;;
47403;SDS011;33157;51.508;4.288;2023-03-14T14:09:19;14.02;;;1.73;;
47403;SDS011;33157;51.508;4.288;2023-03-14T14:19:31;14.15;;;1.90;;
47403;SDS011;33157;51.508;4.288;2023-03-14T14:24:48;13.57;;;2.03;;
47403;SDS011;33157;51.508;4.288;2023-03-14T14:29:58;17.08;;;2.55;;
47403;SDS011;33157;51.508;4.288;2023-03-14T14:40:42;10.98;;;1.83;;
47403;SDS011;33157;51.508;4.288;2023-03-14T14:45:54;9.73;;;1.63;;
47403;SDS011;33157;51.508;4.288;2023-03-14T14:51:00;8.13;;;1.60;;
47403;SDS011;33157;51.508;4.288;2023-03-14T14:56:18;14.15;;;1.85;;
47403;SDS011;33157;51.508;4.288;2023-03-14T15:01:24;16.10;;;2.17;;
47403;SDS011;33157;51.508;4.288;2023-03-14T15:06:33;15.73;;;2.10;;
47403;SDS011;33157;51.508;4.288;2023-03-14T15:11:34;13.48;;;2.47;;
47403;SDS011;33157;51.508;4.288;2023-03-14T15:16:36;17.33;;;1.80;;
47403;SDS011;33157;51.508;4.288;2023-03-14T15:21:44;11.75;;;1.67;;
47403;SDS011;33157;51.508;4.288;2023-03-14T15:26:45;6.55;;;1.58;;
47403;SDS011;33157;51.508;4.288;2023-03-14T15:31:52;15.93;;;2.17;;
47403;SDS011;33157;51.508;4.288;2023-03-14T15:36:55;12.02;;;2.72;;
47403;SDS011;33157;51.508;4.288;2023-03-14T15:41:57;11.02;;;1.88;;
47403;SDS011;33157;51.508;4.288;2023-03-14T15:46:59;12.03;;;1.43;;
47403;SDS011;33157;51.508;4.288;2023-03-14T15:57:10;13.65;;;1.42;;
47403;SDS011;33157;51.508;4.288;2023-03-14T16:02:14;11.20;;;1.70;;
47403;SDS011;33157;51.508;4.288;2023-03-14T16:07:25;10.57;;;1.98;;
47403;SDS011;33157;51.508;4.288;2023-03-14T16:12:36;13.57;;;1.98;;
47403;SDS011;33157;51.508;4.288;2023-03-14T16:22:55;11.73;;;1.90;;
47403;SDS011;33157;51.508;4.288;2023-03-14T16:28:02;13.63;;;1.60;;
47403;SDS011;33157;51.508;4.288;2023-03-14T16:33:04;13.95;;;1.80;;
47403;SDS011;33157;51.508;4.288;2023-03-14T16:38:14;13.18;;;2.38;;
47403;SDS011;33157;51.508;4.288;2023-03-14T16:43:16;12.00;;;2.65;;
47403;SDS011;33157;51.508;4.288;2023-03-14T16:48:17;11.43;;;2.00;;
47403;SDS011;33157;51.508;4.288;2023-03-14T16:53:28;7.70;;;1.38;;
47403;SDS011;33157;51.508;4.288;2023-03-14T16:58:30;9.17;;;1.60;;
47403;SDS011;33157;51.508;4.288;2023-03-14T17:03:41;12.05;;;1.98;;
47403;SDS011;33157;51.508;4.288;2023-03-14T17:08:43;11.43;;;2.20;;
47403;SDS011;33157;51.508;4.288;2023-03-14T17:14:00;22.42;;;2.92;;
47403;SDS011;33157;51.508;4.288;2023-03-14T17:19:02;13.90;;;2.05;;
47403;SDS011;33157;51.508;4.288;2023-03-14T17:24:12;11.48;;;1.67;;
47403;SDS011;33157;51.508;4.288;2023-03-14T17:29:13;9.95;;;1.92;;
47403;SDS011;33157;51.508;4.288;2023-03-14T17:34:21;17.02;;;2.38;;
47403;SDS011;33157;51.508;4.288;2023-03-14T17:39:23;9.40;;;2.28;;
47403;SDS011;33157;51.508;4.288;2023-03-14T17:49:26;18.88;;;2.22;;
47403;SDS011;33157;51.508;4.288;2023-03-14T17:54:27;15.73;;;1.90;;
47403;SDS011;33157;51.508;4.288;2023-03-14T17:59:28;15.25;;;2.20;;
47403;SDS011;33157;51.508;4.288;2023-03-14T18:04:30;12.00;;;1.67;;
47403;SDS011;33157;51.508;4.288;2023-03-14T18:09:31;11.27;;;1.80;;
47403;SDS011;33157;51.508;4.288;2023-03-14T18:14:35;15.15;;;2.42;;
47403;SDS011;33157;51.508;4.288;2023-03-14T18:19:42;21.38;;;2.03;;
47403;SDS011;33157;51.508;4.288;2023-03-14T18:24:43;12.23;;;1.88;;
47403;SDS011;33157;51.508;4.288;2023-03-14T18:29:48;14.05;;;2.38;;
47403;SDS011;33157;51.508;4.288;2023-03-14T18:35:00;11.52;;;1.92;;
47403;SDS011;33157;51.508;4.288;2023-03-14T18:40:10;13.73;;;2.75;;
47403;SDS011;33157;51.508;4.288;2023-03-14T18:45:21;13.40;;;2.47;;
47403;SDS011;33157;51.508;4.288;2023-03-14T18:50:25;14.18;;;2.47;;
47403;SDS011;33157;51.508;4.288;2023-03-14T18:55:42;9.98;;;3.00;;
47403;SDS011;33157;51.508;4.288;2023-03-14T19:00:45;27.80;;;5.03;;
47403;SDS011;33157;51.508;4.288;2023-03-14T19:05:46;17.10;;;4.30;;
47403;SDS011;33157;51.508;4.288;2023-03-14T19:10:48;14.75;;;2.83;;
47403;SDS011;33157;51.508;4.288;2023-03-14T19:15:55;16.80;;;3.33;;
47403;SDS011;33157;51.508;4.288;2023-03-14T19:21:33;15.93;;;2.60;;
47403;SDS011;33157;51.508;4.288;2023-03-14T19:26:32;16.80;;;4.13;;
47403;SDS011;33157;51.508;4.288;2023-03-14T19:31:47;13.70;;;2.85;;
47403;SDS011;33157;51.508;4.288;2023-03-14T19:36:48;12.10;;;2.30;;
47403;SDS011;33157;51.508;4.288;2023-03-14T19:42:06;8.27;;;2.15;;
47403;SDS011;33157;51.508;4.288;2023-03-14T19:47:08;15.55;;;2.00;;
47403;SDS011;33157;51.508;4.288;2023-03-14T19:52:22;10.07;;;2.03;;
47403;SDS011;33157;51.508;4.288;2023-03-14T19:57:27;6.43;;;1.75;;
47403;SDS011;33157;51.508;4.288;2023-03-14T20:02:38;13.48;;;2.33;;
47403;SDS011;33157;51.508;4.288;2023-03-14T20:07:42;11.20;;;2.63;;
47403;SDS011;33157;51.508;4.288;2023-03-14T20:12:49;17.38;;;3.38;;
47403;SDS011;33157;51.508;4.288;2023-03-14T20:23:03;11.87;;;3.03;;
47403;SDS011;33157;51.508;4.288;2023-03-14T20:28:04;18.02;;;3.67;;
47403;SDS011;33157;51.508;4.288;2023-03-14T20:33:06;14.73;;;2.95;;
47403;SDS011;33157;51.508;4.288;2023-03-14T20:38:17;21.27;;;4.15;;
47403;SDS011;33157;51.508;4.288;2023-03-14T20:43:27;19.17;;;4.03;;
47403;SDS011;33157;51.508;4.288;2023-03-14T20:48:30;22.50;;;4.18;;
47403;SDS011;33157;51.508;4.288;2023-03-14T20:53:34;18.83;;;4.75;;
47403;SDS011;33157;51.508;4.288;2023-03-14T20:58:38;17.08;;;4.88;;
47403;SDS011;33157;51.508;4.288;2023-03-14T21:03:41;12.18;;;2.88;;
47403;SDS011;33157;51.508;4.288;2023-03-14T21:08:55;8.30;;;2.35;;
47403;SDS011;33157;51.508;4.288;2023-03-14T21:14:02;13.73;;;1.95;;
47403;SDS011;33157;51.508;4.288;2023-03-14T21:19:04;10.23;;;1.90;;
47403;SDS011;33157;51.508;4.288;2023-03-14T21:24:07;9.40;;;2.13;;
47403;SDS011;33157;51.508;4.288;2023-03-14T21:29:17;11.30;;;2.40;;
47403;SDS011;33157;51.508;4.288;2023-03-14T21:34:25;10.20;;;1.95;;
47403;SDS011;33157;51.508;4.288;2023-03-14T21:39:30;15.13;;;2.25;;
47403;SDS011;33157;51.508;4.288;2023-03-14T21:44:38;7.53;;;1.45;;
47403;SDS011;33157;51.508;4.288;2023-03-14T21:49:49;4.22;;;1.13;;
47403;SDS011;33157;51.508;4.288;2023-03-14T21:55:14;6.30;;;1.20;;
47403;SDS011;33157;51.508;4.288;2023-03-14T22:00:24;6.40;;;1.08;;
47403;SDS011;33157;51.508;4.288;2023-03-14T22:05:28;5.65;;;1.50;;
47403;SDS011;33157;51.508;4.288;2023-03-14T22:10:30;5.20;;;0.97;;
47403;SDS011;33157;51.508;4.288;2023-03-14T22:20:44;8.70;;;2.10;;
47403;SDS011;33157;51.508;4.288;2023-03-14T22:25:46;7.95;;;1.15;;
47403;SDS011;33157;51.508;4.288;2023-03-14T22:30:50;10.38;;;1.50;;
47403;SDS011;33157;51.508;4.288;2023-03-14T22:35:51;8.13;;;1.27;;
47403;SDS011;33157;51.508;4.288;2023-03-14T22:41:02;5.35;;;1.02;;
47403;SDS011;33157;51.508;4.288;2023-03-14T22:46:05;4.38;;;0.90;;
47403;SDS011;33157;51.508;4.288;2023-03-14T22:56:22;6.25;;;1.13;;
47403;SDS011;33157;51.508;4.288;2023-03-14T23:01:29;2.93;;;0.90;;
47403;SDS011;33157;51.508;4.288;2023-03-14T23:06:31;5.72;;;0.95;;
47403;SDS011;33157;51.508;4.288;2023-03-14T23:11:35;4.25;;;0.93;;
47403;SDS011;33157;51.508;4.288;2023-03-14T23:16:58;7.38;;;2.08;;
47403;SDS011;33157;51.508;4.288;2023-03-14T23:22:02;6.63;;;1.10;;
47403;SDS011;33157;51.508;4.288;2023-03-14T23:27:08;7.82;;;1.30;;
47403;SDS011;33157;51.508;4.288;2023-03-14T23:32:09;5.93;;;1.00;;
47403;SDS011;33157;51.508;4.288;2023-03-14T23:37:13;6.60;;;1.20;;
47403;SDS011;33157;51.508;4.288;2023-03-14T23:42:14;5.13;;;1.13;;
47403;SDS011;33157;51.508;4.288;2023-03-14T23:47:17;2.17;;;0.77;;
47403;SDS011;33157;51.508;4.288;2023-03-14T23:52:19;5.77;;;1.30;;
47403;SDS011;33157;51.508;4.288;2023-03-14T23:57:24;10.38;;;1.77;;
